sensor_id;sensor_type;location;lat;lon;timestamp;temperature;humidity
56162;DHT22;42045;52.986;6.014;2023-06-04T00:01:04;10.30;99.90
56162;DHT22;42045;52.986;6.014;2023-06-04T00:03:30;10.20;99.90
56162;DHT22;42045;52.986;6.014;2023-06-04T00:05:56;10.20;99.90
56162;DHT22;42045;52.986;6.014;2023-06-04T00:08:22;10.30;99.90
56162;DHT22;42045;52.986;6.014;2023-06-04T00:10:48;10.20;99.90
56162;DHT22;42045;52.986;6.014;2023-06-04T00:13:14;10.20;99.90
56162;DHT22;42045;52.986;6.014;2023-06-04T00:15:40;10.20;99.90
56162;DHT22;42045;52.986;6.014;2023-06-04T00:18:05;10.10;99.90
56162;DHT22;42045;52.986;6.014;2023-06-04T00:20:31;10.10;99.90
56162;DHT22;42045;52.986;6.014;2023-06-04T00:22:57;10.00;99.90
56162;DHT22;42045;52.986;6.014;2023-06-04T00:25:22;10.00;99.90
56162;DHT22;42045;52.986;6.014;2023-06-04T00:27:48;10.00;99.90
56162;DHT22;42045;52.986;6.014;2023-06-04T00:30:14;9.90;99.90
56162;DHT22;42045;52.986;6.014;2023-06-04T00:32:39;9.90;99.90
56162;DHT22;42045;52.986;6.014;2023-06-04T00:35:06;9.90;99.90
56162;DHT22;42045;52.986;6.014;2023-06-04T00:37:32;9.90;99.90
56162;DHT22;42045;52.986;6.014;2023-06-04T00:39:59;9.80;99.90
56162;DHT22;42045;52.986;6.014;2023-06-04T00:42:25;9.80;99.90
56162;DHT22;42045;52.986;6.014;2023-06-04T00:44:50;9.70;99.90
56162;DHT22;42045;52.986;6.014;2023-06-04T00:47:18;9.70;99.90
56162;DHT22;42045;52.986;6.014;2023-06-04T00:49:44;9.70;99.90
56162;DHT22;42045;52.986;6.014;2023-06-04T00:52:14;9.60;99.90
56162;DHT22;42045;52.986;6.014;2023-06-04T00:54:41;9.60;99.90
56162;DHT22;42045;52.986;6.014;2023-06-04T00:57:07;9.60;99.90
56162;DHT22;42045;52.986;6.014;2023-06-04T00:59:36;9.60;99.90
56162;DHT22;42045;52.986;6.014;2023-06-04T01:02:11;9.50;99.90
56162;DHT22;42045;52.986;6.014;2023-06-04T01:07:07;9.50;99.90
56162;DHT22;42045;52.986;6.014;2023-06-04T01:09:34;9.50;99.90
56162;DHT22;42045;52.986;6.014;2023-06-04T01:12:04;9.50;99.90
56162;DHT22;42045;52.986;6.014;2023-06-04T01:14:30;9.40;99.90
56162;DHT22;42045;52.986;6.014;2023-06-04T01:19:57;9.40;99.90
56162;DHT22;42045;52.986;6.014;2023-06-04T01:22:41;9.30;99.90
56162;DHT22;42045;52.986;6.014;2023-06-04T01:25:20;9.30;99.90
56162;DHT22;42045;52.986;6.014;2023-06-04T01:27:51;9.30;99.90
56162;DHT22;42045;52.986;6.014;2023-06-04T01:30:21;9.30;99.90
56162;DHT22;42045;52.986;6.014;2023-06-04T01:32:48;9.30;99.90
56162;DHT22;42045;52.986;6.014;2023-06-04T01:35:14;9.30;99.90
56162;DHT22;42045;52.986;6.014;2023-06-04T01:37:40;9.30;99.90
56162;DHT22;42045;52.986;6.014;2023-06-04T01:40:07;9.30;99.90
56162;DHT22;42045;52.986;6.014;2023-06-04T01:42:36;9.30;99.90
56162;DHT22;42045;52.986;6.014;2023-06-04T01:45:02;9.40;99.90
56162;DHT22;42045;52.986;6.014;2023-06-04T01:47:28;9.40;99.90
56162;DHT22;42045;52.986;6.014;2023-06-04T01:49:54;9.40;99.90
56162;DHT22;42045;52.986;6.014;2023-06-04T01:52:20;9.40;99.90
56162;DHT22;42045;52.986;6.014;2023-06-04T01:54:47;9.40;99.90
56162;DHT22;42045;52.986;6.014;2023-06-04T01:57:21;9.40;99.90
56162;DHT22;42045;52.986;6.014;2023-06-04T01:59:47;9.40;99.90
56162;DHT22;42045;52.986;6.014;2023-06-04T02:02:14;9.40;99.90
56162;DHT22;42045;52.986;6.014;2023-06-04T02:04:40;9.40;99.90
56162;DHT22;42045;52.986;6.014;2023-06-04T02:07:11;9.40;99.90
56162;DHT22;42045;52.986;6.014;2023-06-04T02:09:39;9.30;99.90
56162;DHT22;42045;52.986;6.014;2023-06-04T02:12:06;9.30;99.90
56162;DHT22;42045;52.986;6.014;2023-06-04T02:14:31;9.30;99.90
56162;DHT22;42045;52.986;6.014;2023-06-04T02:16:57;9.30;99.90
56162;DHT22;42045;52.986;6.014;2023-06-04T02:19:24;9.30;99.90
56162;DHT22;42045;52.986;6.014;2023-06-04T02:21:52;9.30;99.90
56162;DHT22;42045;52.986;6.014;2023-06-04T02:24:18;9.30;99.90
56162;DHT22;42045;52.986;6.014;2023-06-04T02:26:43;9.30;99.90
56162;DHT22;42045;52.986;6.014;2023-06-04T02:29:09;9.30;99.90
56162;DHT22;42045;52.986;6.014;2023-06-04T02:31:34;9.20;99.90
56162;DHT22;42045;52.986;6.014;2023-06-04T02:34:00;9.20;99.90
56162;DHT22;42045;52.986;6.014;2023-06-04T02:36:26;9.20;99.90
56162;DHT22;42045;52.986;6.014;2023-06-04T02:38:51;9.20;99.90
56162;DHT22;42045;52.986;6.014;2023-06-04T02:41:18;9.20;99.90
56162;DHT22;42045;52.986;6.014;2023-06-04T02:43:44;9.10;99.90
56162;DHT22;42045;52.986;6.014;2023-06-04T02:46:10;9.10;99.90
56162;DHT22;42045;52.986;6.014;2023-06-04T02:48:35;9.10;99.90
56162;DHT22;42045;52.986;6.014;2023-06-04T02:51:01;9.10;99.90
56162;DHT22;42045;52.986;6.014;2023-06-04T02:53:27;9.10;99.90
56162;DHT22;42045;52.986;6.014;2023-06-04T02:55:52;9.10;99.90
56162;DHT22;42045;52.986;6.014;2023-06-04T02:58:18;9.00;99.90
56162;DHT22;42045;52.986;6.014;2023-06-04T03:00:44;9.00;99.90
56162;DHT22;42045;52.986;6.014;2023-06-04T03:03:10;9.00;99.90
56162;DHT22;42045;52.986;6.014;2023-06-04T03:05:36;9.00;99.90
56162;DHT22;42045;52.986;6.014;2023-06-04T03:08:04;9.00;99.90
56162;DHT22;42045;52.986;6.014;2023-06-04T03:10:30;8.90;99.90
56162;DHT22;42045;52.986;6.014;2023-06-04T03:12:56;8.90;99.90
56162;DHT22;42045;52.986;6.014;2023-06-04T03:15:22;8.90;99.90
56162;DHT22;42045;52.986;6.014;2023-06-04T03:17:48;8.90;99.90
56162;DHT22;42045;52.986;6.014;2023-06-04T03:20:14;8.90;99.90
56162;DHT22;42045;52.986;6.014;2023-06-04T03:22:40;8.80;99.90
56162;DHT22;42045;52.986;6.014;2023-06-04T03:25:06;8.80;99.90
56162;DHT22;42045;52.986;6.014;2023-06-04T03:27:32;8.80;99.90
56162;DHT22;42045;52.986;6.014;2023-06-04T03:29:58;8.80;99.90
56162;DHT22;42045;52.986;6.014;2023-06-04T03:32:23;8.80;99.90
56162;DHT22;42045;52.986;6.014;2023-06-04T03:34:49;8.80;99.90
56162;DHT22;42045;52.986;6.014;2023-06-04T03:37:16;8.80;99.90
56162;DHT22;42045;52.986;6.014;2023-06-04T03:39:41;8.80;99.90
56162;DHT22;42045;52.986;6.014;2023-06-04T03:42:07;8.90;99.90
56162;DHT22;42045;52.986;6.014;2023-06-04T03:44:33;8.90;99.90
56162;DHT22;42045;52.986;6.014;2023-06-04T03:46:58;8.80;99.90
56162;DHT22;42045;52.986;6.014;2023-06-04T03:49:24;9.00;99.90
56162;DHT22;42045;52.986;6.014;2023-06-04T03:51:50;9.30;99.90
56162;DHT22;42045;52.986;6.014;2023-06-04T03:54:16;9.70;99.90
56162;DHT22;42045;52.986;6.014;2023-06-04T03:56:43;10.20;99.90
56162;DHT22;42045;52.986;6.014;2023-06-04T03:59:09;10.70;99.90
56162;DHT22;42045;52.986;6.014;2023-06-04T04:01:35;11.20;99.90
56162;DHT22;42045;52.986;6.014;2023-06-04T04:04:00;11.70;99.90
56162;DHT22;42045;52.986;6.014;2023-06-04T04:06:26;12.10;99.90
56162;DHT22;42045;52.986;6.014;2023-06-04T04:08:52;12.60;99.90
56162;DHT22;42045;52.986;6.014;2023-06-04T04:11:18;12.90;99.90
56162;DHT22;42045;52.986;6.014;2023-06-04T04:13:45;13.20;99.90
56162;DHT22;42045;52.986;6.014;2023-06-04T04:16:11;13.50;99.90
56162;DHT22;42045;52.986;6.014;2023-06-04T04:18:37;14.00;99.90
56162;DHT22;42045;52.986;6.014;2023-06-04T04:21:04;14.50;99.90
56162;DHT22;42045;52.986;6.014;2023-06-04T04:23:30;14.90;99.90
56162;DHT22;42045;52.986;6.014;2023-06-04T04:25:58;15.40;99.90
56162;DHT22;42045;52.986;6.014;2023-06-04T04:28:24;15.70;99.90
56162;DHT22;42045;52.986;6.014;2023-06-04T04:30:54;15.90;99.90
56162;DHT22;42045;52.986;6.014;2023-06-04T04:33:20;16.20;99.90
56162;DHT22;42045;52.986;6.014;2023-06-04T04:35:45;16.50;99.90
56162;DHT22;42045;52.986;6.014;2023-06-04T04:38:13;16.80;99.90
56162;DHT22;42045;52.986;6.014;2023-06-04T04:40:39;17.00;99.90
56162;DHT22;42045;52.986;6.014;2023-06-04T04:43:04;17.30;99.90
56162;DHT22;42045;52.986;6.014;2023-06-04T04:45:31;17.50;99.90
56162;DHT22;42045;52.986;6.014;2023-06-04T04:47:56;17.70;99.90
56162;DHT22;42045;52.986;6.014;2023-06-04T04:50:22;18.10;99.90
56162;DHT22;42045;52.986;6.014;2023-06-04T04:52:47;18.30;99.90
56162;DHT22;42045;52.986;6.014;2023-06-04T04:55:13;18.40;99.90
56162;DHT22;42045;52.986;6.014;2023-06-04T04:57:39;18.50;99.90
56162;DHT22;42045;52.986;6.014;2023-06-04T05:00:05;18.70;99.90
56162;DHT22;42045;52.986;6.014;2023-06-04T05:02:34;19.00;99.90
56162;DHT22;42045;52.986;6.014;2023-06-04T05:05:01;19.20;99.90
56162;DHT22;42045;52.986;6.014;2023-06-04T05:07:26;19.60;99.90
56162;DHT22;42045;52.986;6.014;2023-06-04T05:09:52;19.80;99.90
56162;DHT22;42045;52.986;6.014;2023-06-04T05:12:17;20.20;99.90
56162;DHT22;42045;52.986;6.014;2023-06-04T05:14:44;20.60;99.90
56162;DHT22;42045;52.986;6.014;2023-06-04T05:17:10;21.20;99.90
56162;DHT22;42045;52.986;6.014;2023-06-04T05:19:36;21.40;99.90
56162;DHT22;42045;52.986;6.014;2023-06-04T05:22:03;21.70;99.90
56162;DHT22;42045;52.986;6.014;2023-06-04T05:24:29;21.80;99.90
56162;DHT22;42045;52.986;6.014;2023-06-04T05:26:56;22.00;99.90
56162;DHT22;42045;52.986;6.014;2023-06-04T05:29:23;22.50;99.90
56162;DHT22;42045;52.986;6.014;2023-06-04T05:31:49;22.80;99.90
56162;DHT22;42045;52.986;6.014;2023-06-04T05:34:15;22.50;99.90
56162;DHT22;42045;52.986;6.014;2023-06-04T05:36:42;22.80;99.90
56162;DHT22;42045;52.986;6.014;2023-06-04T05:39:09;23.20;99.90
56162;DHT22;42045;52.986;6.014;2023-06-04T05:41:35;23.00;99.90
56162;DHT22;42045;52.986;6.014;2023-06-04T05:44:02;22.90;99.90
56162;DHT22;42045;52.986;6.014;2023-06-04T05:46:28;23.20;99.90
56162;DHT22;42045;52.986;6.014;2023-06-04T05:48:53;23.80;99.90
56162;DHT22;42045;52.986;6.014;2023-06-04T05:51:20;23.90;99.10
56162;DHT22;42045;52.986;6.014;2023-06-04T05:53:46;23.80;99.50
56162;DHT22;42045;52.986;6.014;2023-06-04T05:56:12;23.70;99.50
56162;DHT22;42045;52.986;6.014;2023-06-04T05:58:38;24.40;99.60
56162;DHT22;42045;52.986;6.014;2023-06-04T06:01:04;24.50;99.10
56162;DHT22;42045;52.986;6.014;2023-06-04T06:03:30;24.70;98.50
56162;DHT22;42045;52.986;6.014;2023-06-04T06:05:55;25.20;98.90
56162;DHT22;42045;52.986;6.014;2023-06-04T06:08:22;25.70;98.20
56162;DHT22;42045;52.986;6.014;2023-06-04T06:10:48;25.60;97.30
56162;DHT22;42045;52.986;6.014;2023-06-04T06:13:14;26.30;97.00
56162;DHT22;42045;52.986;6.014;2023-06-04T06:15:40;26.80;97.00
56162;DHT22;42045;52.986;6.014;2023-06-04T06:18:06;26.80;96.50
56162;DHT22;42045;52.986;6.014;2023-06-04T06:20:31;27.30;96.00
56162;DHT22;42045;52.986;6.014;2023-06-04T06:22:57;27.40;95.20
56162;DHT22;42045;52.986;6.014;2023-06-04T06:25:23;27.20;94.50
56162;DHT22;42045;52.986;6.014;2023-06-04T06:27:49;27.00;94.70
56162;DHT22;42045;52.986;6.014;2023-06-04T06:30:15;27.00;94.80
56162;DHT22;42045;52.986;6.014;2023-06-04T06:32:42;27.40;94.80
56162;DHT22;42045;52.986;6.014;2023-06-04T06:35:08;27.70;94.10
56162;DHT22;42045;52.986;6.014;2023-06-04T06:37:34;28.00;93.60
56162;DHT22;42045;52.986;6.014;2023-06-04T06:39:59;28.40;93.50
56162;DHT22;42045;52.986;6.014;2023-06-04T06:42:25;28.30;93.20
56162;DHT22;42045;52.986;6.014;2023-06-04T06:44:51;28.30;92.80
56162;DHT22;42045;52.986;6.014;2023-06-04T06:47:16;28.20;92.60
56162;DHT22;42045;52.986;6.014;2023-06-04T06:49:42;28.00;92.10
56162;DHT22;42045;52.986;6.014;2023-06-04T06:52:09;28.20;91.90
56162;DHT22;42045;52.986;6.014;2023-06-04T06:54:35;28.30;91.60
56162;DHT22;42045;52.986;6.014;2023-06-04T06:57:00;28.00;90.60
56162;DHT22;42045;52.986;6.014;2023-06-04T06:59:27;28.20;91.10
56162;DHT22;42045;52.986;6.014;2023-06-04T07:01:52;28.20;90.90
56162;DHT22;42045;52.986;6.014;2023-06-04T07:04:18;28.40;90.50
56162;DHT22;42045;52.986;6.014;2023-06-04T07:06:44;28.90;90.50
56162;DHT22;42045;52.986;6.014;2023-06-04T07:09:10;28.40;90.70
56162;DHT22;42045;52.986;6.014;2023-06-04T07:11:36;28.20;89.50
56162;DHT22;42045;52.986;6.014;2023-06-04T07:14:01;28.60;89.30
56162;DHT22;42045;52.986;6.014;2023-06-04T07:16:28;28.50;88.40
56162;DHT22;42045;52.986;6.014;2023-06-04T07:18:54;28.40;88.90
56162;DHT22;42045;52.986;6.014;2023-06-04T07:21:20;27.50;90.90
56162;DHT22;42045;52.986;6.014;2023-06-04T07:23:47;27.20;90.50
56162;DHT22;42045;52.986;6.014;2023-06-04T07:26:15;26.70;90.90
56162;DHT22;42045;52.986;6.014;2023-06-04T07:28:41;25.70;92.00
56162;DHT22;42045;52.986;6.014;2023-06-04T07:31:07;25.50;92.90
56162;DHT22;42045;52.986;6.014;2023-06-04T07:33:33;25.40;92.00
56162;DHT22;42045;52.986;6.014;2023-06-04T07:35:59;25.00;92.20
56162;DHT22;42045;52.986;6.014;2023-06-04T07:38:26;24.50;92.80
56162;DHT22;42045;52.986;6.014;2023-06-04T07:40:52;24.40;93.40
56162;DHT22;42045;52.986;6.014;2023-06-04T07:43:17;24.00;93.50
56162;DHT22;42045;52.986;6.014;2023-06-04T07:45:43;23.90;93.20
56162;DHT22;42045;52.986;6.014;2023-06-04T07:48:09;23.80;93.90
56162;DHT22;42045;52.986;6.014;2023-06-04T07:50:36;23.60;94.50
56162;DHT22;42045;52.986;6.014;2023-06-04T07:53:02;23.60;94.00
56162;DHT22;42045;52.986;6.014;2023-06-04T07:55:28;23.50;93.90
56162;DHT22;42045;52.986;6.014;2023-06-04T07:57:53;23.30;94.30
56162;DHT22;42045;52.986;6.014;2023-06-04T08:00:19;23.20;94.10
56162;DHT22;42045;52.986;6.014;2023-06-04T08:02:45;23.20;95.50
56162;DHT22;42045;52.986;6.014;2023-06-04T08:05:11;23.00;95.60
56162;DHT22;42045;52.986;6.014;2023-06-04T08:07:39;23.20;95.60
56162;DHT22;42045;52.986;6.014;2023-06-04T08:10:06;23.20;94.90
56162;DHT22;42045;52.986;6.014;2023-06-04T08:12:32;22.80;95.20
56162;DHT22;42045;52.986;6.014;2023-06-04T08:14:57;22.60;95.20
56162;DHT22;42045;52.986;6.014;2023-06-04T08:17:23;22.20;95.00
56162;DHT22;42045;52.986;6.014;2023-06-04T08:19:49;22.30;95.70
56162;DHT22;42045;52.986;6.014;2023-06-04T08:22:15;22.00;95.10
56162;DHT22;42045;52.986;6.014;2023-06-04T08:24:41;22.00;95.40
56162;DHT22;42045;52.986;6.014;2023-06-04T08:27:07;21.70;95.80
56162;DHT22;42045;52.986;6.014;2023-06-04T08:29:34;22.00;95.90
56162;DHT22;42045;52.986;6.014;2023-06-04T08:32:02;22.10;95.40
56162;DHT22;42045;52.986;6.014;2023-06-04T08:34:29;22.00;94.70
56162;DHT22;42045;52.986;6.014;2023-06-04T08:36:54;22.10;95.30
56162;DHT22;42045;52.986;6.014;2023-06-04T08:39:20;22.10;95.90
56162;DHT22;42045;52.986;6.014;2023-06-04T08:41:53;22.10;96.00
56162;DHT22;42045;52.986;6.014;2023-06-04T08:44:20;22.10;96.10
56162;DHT22;42045;52.986;6.014;2023-06-04T08:46:47;22.50;95.90
56162;DHT22;42045;52.986;6.014;2023-06-04T08:49:16;22.50;94.80
56162;DHT22;42045;52.986;6.014;2023-06-04T08:51:43;22.60;94.40
56162;DHT22;42045;52.986;6.014;2023-06-04T08:54:09;22.50;94.80
56162;DHT22;42045;52.986;6.014;2023-06-04T08:56:36;22.50;94.30
56162;DHT22;42045;52.986;6.014;2023-06-04T08:59:04;22.40;94.10
56162;DHT22;42045;52.986;6.014;2023-06-04T09:01:32;22.40;94.60
56162;DHT22;42045;52.986;6.014;2023-06-04T09:04:01;22.30;94.00
56162;DHT22;42045;52.986;6.014;2023-06-04T09:06:27;22.20;94.40
56162;DHT22;42045;52.986;6.014;2023-06-04T09:08:56;22.10;94.20
56162;DHT22;42045;52.986;6.014;2023-06-04T09:11:25;22.10;95.50
56162;DHT22;42045;52.986;6.014;2023-06-04T09:13:53;22.30;95.00
56162;DHT22;42045;52.986;6.014;2023-06-04T09:16:18;22.10;93.80
56162;DHT22;42045;52.986;6.014;2023-06-04T09:18:45;22.00;93.10
56162;DHT22;42045;52.986;6.014;2023-06-04T09:21:10;22.20;93.70
56162;DHT22;42045;52.986;6.014;2023-06-04T09:23:44;22.30;94.90
56162;DHT22;42045;52.986;6.014;2023-06-04T09:26:10;21.90;94.60
56162;DHT22;42045;52.986;6.014;2023-06-04T09:28:40;22.00;95.30
56162;DHT22;42045;52.986;6.014;2023-06-04T09:31:08;22.30;94.80
56162;DHT22;42045;52.986;6.014;2023-06-04T09:36:10;22.00;94.70
56162;DHT22;42045;52.986;6.014;2023-06-04T09:38:36;21.70;93.50
56162;DHT22;42045;52.986;6.014;2023-06-04T09:41:02;21.90;94.80
56162;DHT22;42045;52.986;6.014;2023-06-04T09:43:32;22.00;94.60
56162;DHT22;42045;52.986;6.014;2023-06-04T09:46:14;22.10;93.90
56162;DHT22;42045;52.986;6.014;2023-06-04T09:48:41;22.10;93.90
56162;DHT22;42045;52.986;6.014;2023-06-04T09:51:14;22.10;93.60
56162;DHT22;42045;52.986;6.014;2023-06-04T09:53:55;22.20;93.50
56162;DHT22;42045;52.986;6.014;2023-06-04T09:56:21;22.20;93.00
56162;DHT22;42045;52.986;6.014;2023-06-04T09:58:49;22.20;93.30
56162;DHT22;42045;52.986;6.014;2023-06-04T10:01:15;22.00;92.50
56162;DHT22;42045;52.986;6.014;2023-06-04T10:03:46;22.00;92.90
56162;DHT22;42045;52.986;6.014;2023-06-04T10:06:14;22.20;93.80
56162;DHT22;42045;52.986;6.014;2023-06-04T10:08:42;22.40;94.00
56162;DHT22;42045;52.986;6.014;2023-06-04T10:11:09;22.60;94.00
56162;DHT22;42045;52.986;6.014;2023-06-04T10:16:07;22.50;92.90
56162;DHT22;42045;52.986;6.014;2023-06-04T10:18:33;22.00;92.20
56162;DHT22;42045;52.986;6.014;2023-06-04T10:21:00;22.30;92.80
56162;DHT22;42045;52.986;6.014;2023-06-04T10:23:26;22.40;93.80
56162;DHT22;42045;52.986;6.014;2023-06-04T10:25:54;22.60;93.20
56162;DHT22;42045;52.986;6.014;2023-06-04T10:28:22;22.70;93.20
56162;DHT22;42045;52.986;6.014;2023-06-04T10:30:49;22.50;92.60
56162;DHT22;42045;52.986;6.014;2023-06-04T10:33:20;22.50;91.60
56162;DHT22;42045;52.986;6.014;2023-06-04T10:35:50;22.00;91.40
56162;DHT22;42045;52.986;6.014;2023-06-04T10:38:16;22.00;92.20
56162;DHT22;42045;52.986;6.014;2023-06-04T10:40:44;22.10;91.80
56162;DHT22;42045;52.986;6.014;2023-06-04T10:43:14;22.10;92.70
56162;DHT22;42045;52.986;6.014;2023-06-04T10:45:41;22.30;92.20
56162;DHT22;42045;52.986;6.014;2023-06-04T10:48:09;22.40;92.00
56162;DHT22;42045;52.986;6.014;2023-06-04T10:50:48;22.40;91.70
56162;DHT22;42045;52.986;6.014;2023-06-04T10:53:14;22.40;92.50
56162;DHT22;42045;52.986;6.014;2023-06-04T10:55:44;22.40;92.60
56162;DHT22;42045;52.986;6.014;2023-06-04T10:58:10;22.30;93.60
56162;DHT22;42045;52.986;6.014;2023-06-04T11:00:41;21.90;91.30
56162;DHT22;42045;52.986;6.014;2023-06-04T11:03:09;21.90;92.50
56162;DHT22;42045;52.986;6.014;2023-06-04T11:05:39;21.70;91.60
56162;DHT22;42045;52.986;6.014;2023-06-04T11:08:06;21.70;92.70
56162;DHT22;42045;52.986;6.014;2023-06-04T11:10:43;22.00;93.30
56162;DHT22;42045;52.986;6.014;2023-06-04T11:13:09;21.90;91.80
56162;DHT22;42045;52.986;6.014;2023-06-04T11:15:45;22.10;92.50
56162;DHT22;42045;52.986;6.014;2023-06-04T11:18:16;21.70;91.40
56162;DHT22;42045;52.986;6.014;2023-06-04T11:20:48;22.00;93.50
56162;DHT22;42045;52.986;6.014;2023-06-04T11:23:15;22.00;92.90
56162;DHT22;42045;52.986;6.014;2023-06-04T11:25:42;22.20;93.10
56162;DHT22;42045;52.986;6.014;2023-06-04T11:28:15;21.90;91.90
56162;DHT22;42045;52.986;6.014;2023-06-04T11:30:42;21.70;92.40
56162;DHT22;42045;52.986;6.014;2023-06-04T11:33:08;21.80;92.70
56162;DHT22;42045;52.986;6.014;2023-06-04T11:35:42;22.00;92.30
56162;DHT22;42045;52.986;6.014;2023-06-04T11:38:09;21.90;91.90
56162;DHT22;42045;52.986;6.014;2023-06-04T11:40:35;22.00;92.40
56162;DHT22;42045;52.986;6.014;2023-06-04T11:43:01;22.10;92.30
56162;DHT22;42045;52.986;6.014;2023-06-04T11:45:27;22.20;91.70
56162;DHT22;42045;52.986;6.014;2023-06-04T11:47:56;22.20;92.40
56162;DHT22;42045;52.986;6.014;2023-06-04T11:50:25;22.30;93.00
56162;DHT22;42045;52.986;6.014;2023-06-04T11:52:52;22.30;92.50
56162;DHT22;42045;52.986;6.014;2023-06-04T11:55:19;22.30;92.30
56162;DHT22;42045;52.986;6.014;2023-06-04T11:57:48;22.40;93.90
56162;DHT22;42045;52.986;6.014;2023-06-04T12:00:16;22.50;94.90
56162;DHT22;42045;52.986;6.014;2023-06-04T12:02:54;22.50;94.60
56162;DHT22;42045;52.986;6.014;2023-06-04T12:05:21;22.20;95.00
56162;DHT22;42045;52.986;6.014;2023-06-04T12:07:52;22.30;95.80
56162;DHT22;42045;52.986;6.014;2023-06-04T12:10:18;21.80;94.30
56162;DHT22;42045;52.986;6.014;2023-06-04T12:12:44;21.90;94.40
56162;DHT22;42045;52.986;6.014;2023-06-04T12:15:10;21.70;95.00
56162;DHT22;42045;52.986;6.014;2023-06-04T12:17:36;21.90;94.10
56162;DHT22;42045;52.986;6.014;2023-06-04T12:20:05;21.80;94.00
56162;DHT22;42045;52.986;6.014;2023-06-04T12:22:31;21.90;95.70
56162;DHT22;42045;52.986;6.014;2023-06-04T12:24:57;21.80;95.10
56162;DHT22;42045;52.986;6.014;2023-06-04T12:27:26;21.90;94.40
56162;DHT22;42045;52.986;6.014;2023-06-04T12:29:56;21.90;94.60
56162;DHT22;42045;52.986;6.014;2023-06-04T12:32:22;21.60;94.60
56162;DHT22;42045;52.986;6.014;2023-06-04T12:34:47;21.40;95.20
56162;DHT22;42045;52.986;6.014;2023-06-04T12:37:13;21.50;95.40
56162;DHT22;42045;52.986;6.014;2023-06-04T12:39:39;21.40;94.80
56162;DHT22;42045;52.986;6.014;2023-06-04T12:42:06;21.50;95.70
56162;DHT22;42045;52.986;6.014;2023-06-04T12:44:37;21.60;95.50
56162;DHT22;42045;52.986;6.014;2023-06-04T12:47:04;21.60;95.90
56162;DHT22;42045;52.986;6.014;2023-06-04T12:49:30;21.50;95.50
56162;DHT22;42045;52.986;6.014;2023-06-04T12:51:55;21.30;96.50
56162;DHT22;42045;52.986;6.014;2023-06-04T12:54:21;21.50;95.90
56162;DHT22;42045;52.986;6.014;2023-06-04T12:56:47;21.50;95.50
56162;DHT22;42045;52.986;6.014;2023-06-04T12:59:13;21.30;95.20
56162;DHT22;42045;52.986;6.014;2023-06-04T13:01:39;21.10;96.30
56162;DHT22;42045;52.986;6.014;2023-06-04T13:04:04;21.10;97.00
56162;DHT22;42045;52.986;6.014;2023-06-04T13:06:31;21.20;95.80
56162;DHT22;42045;52.986;6.014;2023-06-04T13:08:57;21.00;95.90
56162;DHT22;42045;52.986;6.014;2023-06-04T13:11:22;21.00;96.40
56162;DHT22;42045;52.986;6.014;2023-06-04T13:13:48;21.10;96.20
56162;DHT22;42045;52.986;6.014;2023-06-04T13:16:14;21.00;95.80
56162;DHT22;42045;52.986;6.014;2023-06-04T13:18:40;21.10;96.10
56162;DHT22;42045;52.986;6.014;2023-06-04T13:21:05;21.20;96.10
56162;DHT22;42045;52.986;6.014;2023-06-04T13:23:31;21.10;96.50
56162;DHT22;42045;52.986;6.014;2023-06-04T13:25:57;21.20;97.10
56162;DHT22;42045;52.986;6.014;2023-06-04T13:28:23;21.10;97.10
56162;DHT22;42045;52.986;6.014;2023-06-04T13:30:48;20.90;96.70
56162;DHT22;42045;52.986;6.014;2023-06-04T13:33:14;20.90;96.10
56162;DHT22;42045;52.986;6.014;2023-06-04T13:35:40;20.80;96.90
56162;DHT22;42045;52.986;6.014;2023-06-04T13:38:08;20.70;96.80
56162;DHT22;42045;52.986;6.014;2023-06-04T13:40:36;20.70;98.00
56162;DHT22;42045;52.986;6.014;2023-06-04T13:43:02;20.80;97.10
56162;DHT22;42045;52.986;6.014;2023-06-04T13:45:28;20.70;97.10
56162;DHT22;42045;52.986;6.014;2023-06-04T13:47:54;20.60;97.70
56162;DHT22;42045;52.986;6.014;2023-06-04T13:50:19;20.50;97.10
56162;DHT22;42045;52.986;6.014;2023-06-04T13:52:45;20.70;98.20
56162;DHT22;42045;52.986;6.014;2023-06-04T13:55:12;20.70;97.50
56162;DHT22;42045;52.986;6.014;2023-06-04T13:57:38;20.40;98.00
56162;DHT22;42045;52.986;6.014;2023-06-04T14:00:06;20.70;99.40
56162;DHT22;42045;52.986;6.014;2023-06-04T14:02:33;20.70;97.70
56162;DHT22;42045;52.986;6.014;2023-06-04T14:04:58;20.40;97.80
56162;DHT22;42045;52.986;6.014;2023-06-04T14:07:24;20.40;97.90
56162;DHT22;42045;52.986;6.014;2023-06-04T14:09:50;20.50;98.10
56162;DHT22;42045;52.986;6.014;2023-06-04T14:12:23;20.20;97.50
56162;DHT22;42045;52.986;6.014;2023-06-04T14:14:49;20.30;99.10
56162;DHT22;42045;52.986;6.014;2023-06-04T14:17:15;20.40;99.00
56162;DHT22;42045;52.986;6.014;2023-06-04T14:19:41;20.20;97.80
56162;DHT22;42045;52.986;6.014;2023-06-04T14:22:07;20.30;98.30
56162;DHT22;42045;52.986;6.014;2023-06-04T14:24:33;20.10;98.10
56162;DHT22;42045;52.986;6.014;2023-06-04T14:26:59;19.80;98.00
56162;DHT22;42045;52.986;6.014;2023-06-04T14:29:24;19.90;98.60
56162;DHT22;42045;52.986;6.014;2023-06-04T14:31:50;19.60;97.90
56162;DHT22;42045;52.986;6.014;2023-06-04T14:34:16;19.70;98.60
56162;DHT22;42045;52.986;6.014;2023-06-04T14:36:41;19.70;98.60
56162;DHT22;42045;52.986;6.014;2023-06-04T14:39:07;19.70;98.80
56162;DHT22;42045;52.986;6.014;2023-06-04T14:41:33;19.70;98.90
56162;DHT22;42045;52.986;6.014;2023-06-04T14:43:58;19.90;99.10
56162;DHT22;42045;52.986;6.014;2023-06-04T14:46:25;19.70;97.90
56162;DHT22;42045;52.986;6.014;2023-06-04T14:48:51;19.60;98.10
56162;DHT22;42045;52.986;6.014;2023-06-04T14:51:17;19.70;98.80
56162;DHT22;42045;52.986;6.014;2023-06-04T14:53:42;19.80;99.40
56162;DHT22;42045;52.986;6.014;2023-06-04T14:56:08;19.80;98.90
56162;DHT22;42045;52.986;6.014;2023-06-04T14:58:34;19.40;98.40
56162;DHT22;42045;52.986;6.014;2023-06-04T15:01:00;19.30;98.30
56162;DHT22;42045;52.986;6.014;2023-06-04T15:03:29;19.20;98.90
56162;DHT22;42045;52.986;6.014;2023-06-04T15:05:55;19.20;98.60
56162;DHT22;42045;52.986;6.014;2023-06-04T15:08:21;19.00;98.90
56162;DHT22;42045;52.986;6.014;2023-06-04T15:10:46;19.10;99.10
56162;DHT22;42045;52.986;6.014;2023-06-04T15:13:12;19.20;99.20
56162;DHT22;42045;52.986;6.014;2023-06-04T15:15:38;19.30;99.60
56162;DHT22;42045;52.986;6.014;2023-06-04T15:18:03;19.40;98.80
56162;DHT22;42045;52.986;6.014;2023-06-04T15:20:32;19.30;99.20
56162;DHT22;42045;52.986;6.014;2023-06-04T15:22:57;19.20;99.90
56162;DHT22;42045;52.986;6.014;2023-06-04T15:25:23;19.40;99.80
56162;DHT22;42045;52.986;6.014;2023-06-04T15:27:49;19.20;99.10
56162;DHT22;42045;52.986;6.014;2023-06-04T15:30:14;19.20;99.70
56162;DHT22;42045;52.986;6.014;2023-06-04T15:32:42;19.20;99.80
56162;DHT22;42045;52.986;6.014;2023-06-04T15:35:09;19.30;99.70
56162;DHT22;42045;52.986;6.014;2023-06-04T15:37:35;19.10;99.60
56162;DHT22;42045;52.986;6.014;2023-06-04T15:40:01;19.10;99.90
56162;DHT22;42045;52.986;6.014;2023-06-04T15:42:26;19.10;99.50